Time;durP1;ratioP1;P1;durP2;ratioP2;P2;SDS_P1;SDS_P2;PMS_P1;PMS_P2;Temp;Humidity;BMP_temperature;BMP_pressure;BME280_temperature;BME280_humidity;BME280_pressure;Samples;Min_cycle;Max_cycle;Signal;HPM_P1;HPM_P2
2022/11/02 01:44:05;;;;;;;;;;;;;;;;;;;;;
2022/11/02 01:46:49;;;;;;;;;;;;;;;;;;;;;
2022/11/02 01:49:44;;;;;;;5.40;3.35;;;;;;;;;;5042418;28;20073;-83
2022/11/02 01:55:52;;;;;;;3.40;2.33;;;;;;;;;;5028655;28;20429;-82
2022/11/02 01:58:39;;;;;;;;;;;;;;;;;;;;;
2022/11/02 02:01:11;;;;;;;6.32;2.72;;;;;;;;;;5042077;28;20530;-82
2022/11/02 02:07:23;;;;;;;4.10;2.58;;;;;;;;;;5045020;28;20045;-83
2022/11/02 02:10:28;;;;;;;5.75;2.78;;;;;;;;;;5039725;28;20030;-83
2022/11/02 02:13:30;;;;;;;;;;;;;;;;;;;;;
2022/11/02 02:19:28;;;;;;;;;;;;;;;;;;;;;
2022/11/02 02:22:24;;;;;;;3.28;2.42;;;;;;;;;;5039447;28;20073;-84
2022/11/02 02:25:15;;;;;;;3.08;2.40;;;;;;;;;;5022068;28;20044;-82
2022/11/02 02:34:33;;;;;;;3.25;2.25;;;;;;;;;;5008373;28;20037;-82
2022/11/02 02:40:37;;;;;;;3.58;2.70;;;;;;;;;;5016126;28;20030;-82
2022/11/02 02:46:34;;;;;;;4.25;2.53;;;;;;;;;;4940618;28;20277;-82
2022/11/02 02:49:16;;;;;;;4.50;2.10;;;;;;;;;;5025353;28;20042;-83
2022/11/02 02:51:44;;;;;;;7.20;2.35;;;;;;;;;;5021005;28;20029;-84
2022/11/02 02:57:54;;;;;;;;;;;;;;;;;;;;;
2022/11/02 03:00:42;;;;;;;;;;;;;;;;;;;;;
2022/11/02 03:03:45;;;;;;;3.90;2.42;;;;;;;;;;5038690;28;20105;-82
2022/11/02 03:07:02;;;;;;;6.75;2.15;;;;;;;;;;5029765;28;20049;-82
2022/11/02 03:15:58;;;;;;;4.05;2.03;;;;;;;;;;5032551;28;20026;-82
2022/11/02 03:18:58;;;;;;;5.53;1.83;;;;;;;;;;5040527;28;20030;-83
2022/11/02 03:21:39;;;;;;;4.30;2.05;;;;;;;;;;5002576;28;20033;-82
2022/11/02 03:24:44;;;;;;;6.47;2.50;;;;;;;;;;5002695;28;20049;-83
2022/11/02 03:27:41;;;;;;;4.95;2.35;;;;;;;;;;5030601;28;20307;-83
2022/11/02 03:30:55;;;;;;;6.70;2.65;;;;;;;;;;5035789;28;21551;-83
2022/11/02 03:33:53;;;;;;;5.10;2.72;;;;;;;;;;5036173;28;20045;-83
2022/11/02 03:37:08;;;;;;;4.28;2.20;;;;;;;;;;4966910;28;20174;-82
2022/11/02 03:43:05;;;;;;;4.30;1.90;;;;;;;;;;4992523;28;20043;-82
2022/11/02 03:46:17;;;;;;;;;;;;;;;;;;;;;
2022/11/02 03:48:56;;;;;;;5.95;3.30;;;;;;;;;;4980654;28;20062;-82
2022/11/02 03:51:49;;;;;;;7.07;2.42;;;;;;;;;;4986356;28;20045;-82
2022/11/02 03:54:35;;;;;;;8.02;3.20;;;;;;;;;;5035111;28;20010;-82
2022/11/02 03:57:18;;;;;;;5.93;2.95;;;;;;;;;;5043233;28;20029;-82
2022/11/02 04:00:03;;;;;;;5.88;3.08;;;;;;;;;;5034716;28;20006;-82
2022/11/02 04:03:06;;;;;;;6.65;2.83;;;;;;;;;;5053616;28;20026;-82
2022/11/02 04:05:52;;;;;;;;;;;;;;;;;;;;;
2022/11/02 04:15:00;;;;;;;;;;;;;;;;;;;;;
2022/11/02 04:20:19;;;;;;;7.20;3.05;;;;;;;;;;4988986;28;20033;-82
2022/11/02 04:25:30;;;;;;;7.93;2.95;;;;;;;;;;5043270;28;20398;-82
2022/11/02 04:27:56;;;;;;;8.93;2.90;;;;;;;;;;5039227;28;20028;-83
2022/11/02 04:30:22;;;;;;;9.52;3.42;;;;;;;;;;5023483;28;20084;-83
2022/11/02 04:35:36;;;;;;;3.63;2.35;;;;;;;;;;5039318;28;20039;-82
2022/11/02 04:40:47;;;;;;;7.65;2.60;;;;;;;;;;5040704;28;20033;-83
2022/11/02 04:43:13;;;;;;;5.40;2.60;;;;;;;;;;5049229;28;20021;-84
2022/11/02 04:45:39;;;;;;;5.07;2.60;;;;;;;;;;5041165;28;20193;-82
2022/11/02 04:48:06;;;;;;;7.32;3.13;;;;;;;;;;5058124;28;20056;-83
2022/11/02 04:50:33;;;;;;;6.22;3.47;;;;;;;;;;5057933;28;20013;-82
2022/11/02 04:52:59;;;;;;;6.47;3.30;;;;;;;;;;5044728;28;20029;-82
2022/11/02 04:55:26;;;;;;;3.47;2.78;;;;;;;;;;5043764;28;20037;-83
2022/11/02 04:57:52;;;;;;;7.07;3.30;;;;;;;;;;5039973;28;20124;-82
2022/11/02 05:00:19;;;;;;;6.13;3.25;;;;;;;;;;5043248;28;20033;-82
2022/11/02 05:02:48;;;;;;;5.97;2.95;;;;;;;;;;5038224;28;20470;-83
2022/11/02 05:05:15;;;;;;;5.88;2.80;;;;;;;;;;5041457;28;20029;-82
2022/11/02 05:07:41;;;;;;;5.53;2.63;;;;;;;;;;5019649;28;20108;-83
2022/11/02 05:10:07;;;;;;;6.45;3.05;;;;;;;;;;5039161;28;20467;-83
2022/11/02 05:12:33;;;;;;;8.55;3.15;;;;;;;;;;5023225;28;20439;-82
2022/11/02 05:15:00;;;;;;;6.00;3.00;;;;;;;;;;5020196;28;20026;-81
2022/11/02 05:17:26;;;;;;;4.63;2.72;;;;;;;;;;5018850;28;20056;-82
2022/11/02 05:19:52;;;;;;;4.53;2.90;;;;;;;;;;5019371;28;20120;-84
2022/11/02 05:22:20;;;;;;;5.00;2.85;;;;;;;;;;5023331;28;20041;-82
2022/11/02 05:24:46;;;;;;;3.45;2.50;;;;;;;;;;5024008;28;20025;-84
2022/11/02 05:27:12;;;;;;;3.80;2.63;;;;;;;;;;5039516;28;20033;-83
2022/11/02 05:29:38;;;;;;;7.85;3.38;;;;;;;;;;5041846;28;20024;-83
2022/11/02 05:32:05;;;;;;;4.60;3.00;;;;;;;;;;5023148;28;20037;-84
2022/11/02 05:34:31;;;;;;;7.13;2.95;;;;;;;;;;5022041;28;20080;-84
2022/11/02 05:36:57;;;;;;;5.28;3.00;;;;;;;;;;5039815;28;20017;-84
2022/11/02 05:39:23;;;;;;;4.93;2.75;;;;;;;;;;5040271;28;20064;-84
2022/11/02 05:41:49;;;;;;;3.22;2.55;;;;;;;;;;5023087;28;20026;-84
2022/11/02 05:44:15;;;;;;;3.92;2.05;;;;;;;;;;5022958;28;20026;-83
2022/11/02 05:46:42;;;;;;;4.55;2.72;;;;;;;;;;5040556;28;20060;-84
2022/11/02 05:49:09;;;;;;;4.97;2.95;;;;;;;;;;5040836;28;20025;-82
2022/11/02 05:51:35;;;;;;;6.40;2.65;;;;;;;;;;5043582;28;20029;-83
2022/11/02 05:54:01;;;;;;;2.70;2.08;;;;;;;;;;5047301;28;20029;-83
2022/11/02 05:56:27;;;;;;;5.28;2.70;;;;;;;;;;5020933;28;20025;-83
2022/11/02 05:58:54;;;;;;;4.93;2.67;;;;;;;;;;5021369;28;20030;-82
2022/11/02 06:01:20;;;;;;;4.13;2.53;;;;;;;;;;5040678;28;20025;-84
2022/11/02 06:03:46;;;;;;;3.13;2.30;;;;;;;;;;5024022;28;20052;-83
2022/11/02 06:06:12;;;;;;;3.75;2.40;;;;;;;;;;5025051;28;20049;-83
2022/11/02 06:08:39;;;;;;;4.53;2.55;;;;;;;;;;5039318;28;20025;-84
2022/11/02 06:11:05;;;;;;;4.28;2.20;;;;;;;;;;5040153;28;20032;-83
2022/11/02 06:13:31;;;;;;;3.17;1.90;;;;;;;;;;5039769;28;20033;-84
2022/11/02 06:16:00;;;;;;;3.38;2.13;;;;;;;;;;5044747;28;20026;-83
2022/11/02 06:18:26;;;;;;;4.47;2.85;;;;;;;;;;5039396;28;20025;-83
2022/11/02 06:20:52;;;;;;;6.57;2.40;;;;;;;;;;5039338;28;20039;-83
2022/11/02 06:23:18;;;;;;;7.63;2.35;;;;;;;;;;5041920;28;20025;-82
2022/11/02 06:25:51;;;;;;;7.03;3.08;;;;;;;;;;5039603;28;20025;-84
2022/11/02 06:28:17;;;;;;;3.83;1.92;;;;;;;;;;5021871;28;20021;-84
2022/11/02 06:30:44;;;;;;;2.80;2.10;;;;;;;;;;5040738;28;20422;-84
2022/11/02 06:33:10;;;;;;;2.67;2.03;;;;;;;;;;5041718;28;20033;-84
2022/11/02 06:35:36;;;;;;;7.88;2.95;;;;;;;;;;5026212;28;20124;-83
2022/11/02 06:38:02;;;;;;;6.20;2.83;;;;;;;;;;5022503;28;20032;-85
2022/11/02 06:40:28;;;;;;;7.20;2.97;;;;;;;;;;5040047;28;20025;-83
2022/11/02 06:42:58;;;;;;;7.90;3.25;;;;;;;;;;5040308;28;20541;-83
2022/11/02 06:45:24;;;;;;;4.47;2.80;;;;;;;;;;5040158;28;20241;-83
2022/11/02 06:47:50;;;;;;;3.97;2.50;;;;;;;;;;5023077;28;20033;-83
2022/11/02 06:50:17;;;;;;;4.20;2.70;;;;;;;;;;5040276;28;20037;-83
2022/11/02 06:52:43;;;;;;;8.15;3.20;;;;;;;;;;5025791;28;20036;-84
2022/11/02 06:55:10;;;;;;;6.28;3.05;;;;;;;;;;5044717;28;20072;-82
2022/11/02 06:57:36;;;;;;;8.00;2.58;;;;;;;;;;5041930;28;20029;-85
2022/11/02 07:00:06;;;;;;;6.57;2.70;;;;;;;;;;5040131;28;20029;-85
2022/11/02 07:02:33;;;;;;;4.80;2.60;;;;;;;;;;5041726;28;20025;-83
2022/11/02 07:04:59;;;;;;;5.32;2.40;;;;;;;;;;5039241;28;20024;-83
2022/11/02 07:07:25;;;;;;;3.85;2.25;;;;;;;;;;5039755;28;20029;-83
2022/11/02 07:09:51;;;;;;;7.57;2.58;;;;;;;;;;5022859;28;20029;-83
2022/11/02 07:12:17;;;;;;;9.32;2.58;;;;;;;;;;5042129;28;20040;-83
2022/11/02 07:14:43;;;;;;;3.28;2.40;;;;;;;;;;5039711;28;20081;-83
2022/11/02 07:17:09;;;;;;;4.45;2.53;;;;;;;;;;5046982;28;20052;-81
2022/11/02 07:19:35;;;;;;;9.43;3.13;;;;;;;;;;5045210;28;20413;-83
2022/11/02 07:22:01;;;;;;;10.68;3.38;;;;;;;;;;5021746;28;20033;-83
2022/11/02 07:24:27;;;;;;;4.55;2.45;;;;;;;;;;5039866;28;20025;-81
2022/11/02 07:26:53;;;;;;;5.18;2.78;;;;;;;;;;5042012;28;20026;-81
2022/11/02 07:29:20;;;;;;;5.93;2.47;;;;;;;;;;5022926;28;20037;-82
2022/11/02 07:31:46;;;;;;;3.55;2.53;;;;;;;;;;5040910;28;20041;-82
2022/11/02 07:34:12;;;;;;;4.25;2.30;;;;;;;;;;5043169;28;20032;-84
2022/11/02 07:36:39;;;;;;;7.60;2.95;;;;;;;;;;5041783;28;20030;-84
2022/11/02 07:39:06;;;;;;;3.78;2.10;;;;;;;;;;5042301;28;20029;-84
2022/11/02 07:41:32;;;;;;;7.05;2.97;;;;;;;;;;5023366;28;20025;-82
2022/11/02 07:44:01;;;;;;;4.30;2.70;;;;;;;;;;5040530;28;20030;-82
2022/11/02 07:46:27;;;;;;;6.90;2.13;;;;;;;;;;5040293;28;20340;-84
2022/11/02 07:48:53;;;;;;;5.43;2.50;;;;;;;;;;5025092;28;20052;-82
2022/11/02 07:51:27;;;;;;;5.15;2.63;;;;;;;;;;5043419;28;20044;-84
2022/11/02 07:53:56;;;;;;;6.13;2.53;;;;;;;;;;5026267;28;20021;-83
2022/11/02 07:56:22;;;;;;;6.93;2.55;;;;;;;;;;5038832;28;20102;-83
2022/11/02 07:58:48;;;;;;;3.58;1.98;;;;;;;;;;5027913;28;20064;-82
2022/11/02 08:01:15;;;;;;;3.75;2.45;;;;;;;;;;5054829;28;20048;-82
2022/11/02 08:03:41;;;;;;;7.85;2.47;;;;;;;;;;5037601;28;20018;-83
2022/11/02 08:06:07;;;;;;;4.60;2.47;;;;;;;;;;5055011;28;20135;-82
2022/11/02 08:08:33;;;;;;;5.90;2.13;;;;;;;;;;5055907;28;20071;-81
2022/11/02 08:11:03;;;;;;;4.20;2.40;;;;;;;;;;5055936;28;20025;-81
2022/11/02 08:13:29;;;;;;;5.47;2.28;;;;;;;;;;5056111;28;20021;-84
2022/11/02 08:15:55;;;;;;;7.10;2.42;;;;;;;;;;5056230;28;20025;-82
2022/11/02 08:18:25;;;;;;;4.43;2.05;;;;;;;;;;5059317;28;20014;-82
2022/11/02 08:20:51;;;;;;;3.90;2.15;;;;;;;;;;5053665;28;20092;-83
2022/11/02 08:23:18;;;;;;;5.32;2.30;;;;;;;;;;5043335;28;20021;-82
2022/11/02 08:25:45;;;;;;;4.43;2.20;;;;;;;;;;5044448;28;20124;-81
2022/11/02 08:28:13;;;;;;;4.55;2.25;;;;;;;;;;5026881;28;20040;-84
2022/11/02 08:30:39;;;;;;;6.75;2.50;;;;;;;;;;5031711;28;20031;-85
2022/11/02 08:33:07;;;;;;;8.43;2.88;;;;;;;;;;5046594;28;20022;-83
2022/11/02 08:35:35;;;;;;;1.98;1.38;;;;;;;;;;5028477;28;20036;-83
2022/11/02 08:38:01;;;;;;;4.97;2.30;;;;;;;;;;5028794;28;20026;-84
2022/11/02 08:40:27;;;;;;;4.35;1.70;;;;;;;;;;5026398;28;20025;-83
2022/11/02 08:43:01;;;;;;;2.65;1.52;;;;;;;;;;5043960;28;20022;-83
2022/11/02 08:45:28;;;;;;;5.85;1.80;;;;;;;;;;5042454;28;20030;-85
2022/11/02 08:47:54;;;;;;;5.00;1.77;;;;;;;;;;5042256;28;20025;-84
2022/11/02 08:50:20;;;;;;;3.28;1.25;;;;;;;;;;5025544;28;20025;-83
2022/11/02 08:52:46;;;;;;;7.78;1.70;;;;;;;;;;5027801;28;20089;-85
2022/11/02 08:55:13;;;;;;;4.75;1.63;;;;;;;;;;5026561;28;20029;-84
2022/11/02 08:57:49;;;;;;;5.13;1.67;;;;;;;;;;5042221;28;20048;-83
2022/11/02 09:00:16;;;;;;;4.53;1.90;;;;;;;;;;5043215;28;20029;-83
2022/11/02 09:02:42;;;;;;;5.13;1.73;;;;;;;;;;5030365;28;20034;-84
2022/11/02 09:05:09;;;;;;;5.75;2.05;;;;;;;;;;5050756;28;20029;-83
2022/11/02 09:07:35;;;;;;;9.07;1.90;;;;;;;;;;5054534;28;20025;-83
2022/11/02 09:10:01;;;;;;;6.47;1.52;;;;;;;;;;5055279;28;20030;-84
2022/11/02 09:12:28;;;;;;;3.85;1.30;;;;;;;;;;5055050;28;20044;-84
2022/11/02 09:14:54;;;;;;;6.95;1.92;;;;;;;;;;5049543;28;20036;-83
2022/11/02 09:17:20;;;;;;;3.72;1.65;;;;;;;;;;5046711;28;20037;-82
2022/11/02 09:19:46;;;;;;;4.78;1.35;;;;;;;;;;5028943;28;20033;-84
2022/11/02 09:22:12;;;;;;;7.80;1.60;;;;;;;;;;5029560;28;20029;-84
2022/11/02 09:24:38;;;;;;;8.45;1.48;;;;;;;;;;5046784;28;20100;-84
2022/11/02 09:27:04;;;;;;;4.88;1.45;;;;;;;;;;5025447;28;20033;-84
2022/11/02 09:29:30;;;;;;;10.02;2.60;;;;;;;;;;5024895;28;20033;-84
2022/11/02 09:31:56;;;;;;;4.78;1.70;;;;;;;;;;5026357;28;20028;-84
2022/11/02 09:34:22;;;;;;;8.75;1.90;;;;;;;;;;5045954;28;20029;-84
2022/11/02 09:36:48;;;;;;;4.65;1.52;;;;;;;;;;5028578;28;20112;-84
2022/11/02 09:39:16;;;;;;;4.60;1.40;;;;;;;;;;5025989;28;20108;-83
2022/11/02 09:41:45;;;;;;;4.05;1.40;;;;;;;;;;5043422;28;20026;-83
2022/11/02 09:44:19;;;;;;;4.70;1.65;;;;;;;;;;5028536;28;20087;-82
2022/11/02 09:46:46;;;;;;;6.65;1.30;;;;;;;;;;5042865;28;20069;-82
2022/11/02 09:49:15;;;;;;;5.35;2.17;;;;;;;;;;5042525;28;20026;-82
2022/11/02 09:51:44;;;;;;;6.32;1.67;;;;;;;;;;5026876;28;20060;-82
2022/11/02 09:54:19;;;;;;;6.78;1.60;;;;;;;;;;5045769;28;20018;-81
2022/11/02 09:56:46;;;;;;;6.88;1.67;;;;;;;;;;5029426;28;20021;-82
2022/11/02 09:59:15;;;;;;;7.32;2.10;;;;;;;;;;5046724;28;20025;-84
2022/11/02 10:01:47;;;;;;;6.55;1.38;;;;;;;;;;5056157;28;20052;-81
2022/11/02 10:04:13;;;;;;;;;;;;;;;;;;5057027;28;20014;-80
2022/11/02 10:06:43;;;;;;;4.97;1.33;;;;;;;;;;5055262;28;19913;-82
2022/11/02 10:09:15;;;;;;;6.40;1.58;;;;;;;;;;5052240;28;20029;-82
2022/11/02 10:11:52;;;;;;;4.80;1.50;;;;;;;;;;5027490;28;20076;-82
2022/11/02 10:14:28;;;;;;;10.23;1.70;;;;;;;;;;5048275;28;20028;-82
2022/11/02 10:17:14;;;;;;;8.40;1.73;;;;;;;;;;5047160;28;20022;-83
2022/11/02 10:19:46;;;;;;;7.20;2.03;;;;;;;;;;5047060;28;20429;-80
2022/11/02 10:22:16;;;;;;;10.40;2.35;;;;;;;;;;5034987;28;20034;-80
2022/11/02 10:24:46;;;;;;;7.45;1.45;;;;;;;;;;5030154;28;20036;-80
2022/11/02 10:27:26;;;;;;;13.80;2.55;;;;;;;;;;5042566;28;20029;-82
2022/11/02 10:29:58;;;;;;;6.40;1.63;;;;;;;;;;5041391;28;20035;-81
2022/11/02 10:32:24;;;;;;;;;;;;;;;;;;5043130;28;20072;-82
2022/11/02 10:34:50;;;;;;;5.45;1.63;;;;;;;;;;5045357;28;19905;-82
2022/11/02 10:37:19;;;;;;;9.98;2.00;;;;;;;;;;5044687;28;20024;-83
2022/11/02 10:40:00;;;;;;;9.38;1.75;;;;;;;;;;5023084;28;20060;-81
2022/11/02 10:42:41;;;;;;;12.30;2.15;;;;;;;;;;5040947;28;20025;-81
2022/11/02 10:45:17;;;;;;;9.23;1.90;;;;;;;;;;5025112;28;20215;-80
2022/11/02 10:48:21;;;;;;;8.02;1.60;;;;;;;;;;5024771;28;20032;-82
2022/11/02 10:50:53;;;;;;;4.57;1.23;;;;;;;;;;4962569;28;20046;-80
2022/11/02 10:53:20;;;;;;;9.13;1.67;;;;;;;;;;4946882;29;20099;-82
2022/11/02 10:55:49;;;;;;;7.90;1.85;;;;;;;;;;4988709;28;20268;-80
2022/11/02 10:58:17;;;;;;;5.75;1.38;;;;;;;;;;5045308;28;20020;-81
2022/11/02 11:00:43;;;;;;;7.47;1.88;;;;;;;;;;5041690;28;20029;-82
2022/11/02 11:03:11;;;;;;;5.93;1.27;;;;;;;;;;5028388;28;20037;-82
2022/11/02 11:05:41;;;;;;;6.45;1.52;;;;;;;;;;5045595;28;20025;-80
2022/11/02 11:08:25;;;;;;;7.68;1.40;;;;;;;;;;5044168;28;20471;-82
2022/11/02 11:10:52;;;;;;;4.07;1.20;;;;;;;;;;5025424;28;20076;-82
2022/11/02 11:13:23;;;;;;;7.15;1.95;;;;;;;;;;5043802;28;20028;-80
2022/11/02 11:15:51;;;;;;;6.32;1.80;;;;;;;;;;5046117;28;20032;-82
2022/11/02 11:18:19;;;;;;;4.65;1.15;;;;;;;;;;5045131;28;20101;-82
2022/11/02 11:20:45;;;;;;;8.30;2.33;;;;;;;;;;5048480;28;20415;-81
2022/11/02 11:23:14;;;;;;;6.30;1.27;;;;;;;;;;5048543;28;20033;-84
2022/11/02 11:25:41;;;;;;;4.95;1.42;;;;;;;;;;5049309;28;20037;-81
2022/11/02 11:28:25;;;;;;;6.47;1.58;;;;;;;;;;5049978;28;20033;-81
2022/11/02 11:31:21;;;;;;;6.07;1.35;;;;;;;;;;5030666;28;20025;-80
2022/11/02 11:33:50;;;;;;;7.72;1.48;;;;;;;;;;5017254;28;20038;-79
2022/11/02 11:36:21;;;;;;;6.05;1.23;;;;;;;;;;5029148;28;20018;-82
2022/11/02 11:38:48;;;;;;;6.63;1.92;;;;;;;;;;5030212;28;20141;-82
2022/11/02 11:41:14;;;;;;;3.45;1.50;;;;;;;;;;5038618;28;20029;-82
2022/11/02 11:43:41;;;;;;;6.40;1.55;;;;;;;;;;5050348;28;20040;-84
2022/11/02 11:46:08;;;;;;;8.20;1.85;;;;;;;;;;5050707;28;20056;-81
2022/11/02 11:48:39;;;;;;;4.47;1.35;;;;;;;;;;5050601;28;20088;-81
2022/11/02 11:51:21;;;;;;;5.30;1.48;;;;;;;;;;5050947;28;20032;-81
2022/11/02 11:54:06;;;;;;;10.90;2.10;;;;;;;;;;5053775;28;20026;-82
2022/11/02 11:56:33;;;;;;;5.85;1.42;;;;;;;;;;5034182;28;20037;-82
2022/11/02 11:58:59;;;;;;;5.07;2.10;;;;;;;;;;5037874;28;20029;-81
2022/11/02 12:01:25;;;;;;;6.43;1.40;;;;;;;;;;5059929;28;20075;-80
2022/11/02 12:04:00;;;;;;;7.35;1.90;;;;;;;;;;5059929;28;20102;-81
2022/11/02 12:06:45;;;;;;;6.53;1.55;;;;;;;;;;5042497;28;20025;-80
2022/11/02 12:09:17;;;;;;;9.05;1.48;;;;;;;;;;5059970;28;20200;-79
2022/11/02 12:12:05;;;;;;;7.95;1.45;;;;;;;;;;5059905;28;20025;-80
2022/11/02 12:14:37;;;;;;;4.47;1.45;;;;;;;;;;5041604;28;20045;-81
2022/11/02 12:17:19;;;;;;;5.07;1.25;;;;;;;;;;5042154;28;20338;-81
2022/11/02 12:19:48;;;;;;;9.48;1.25;;;;;;;;;;5037991;28;20088;-82
2022/11/02 12:22:20;;;;;;;6.93;1.40;;;;;;;;;;5051752;28;20029;-80
2022/11/02 12:24:46;;;;;;;;;;;;;;;;;;5051742;28;20033;-81
2022/11/02 12:27:25;;;;;;;4.57;1.67;;;;;;;;;;5034175;28;19912;-80
2022/11/02 12:30:10;;;;;;;3.05;1.40;;;;;;;;;;5013904;28;20041;-82
2022/11/02 12:32:36;;;;;;;7.95;1.25;;;;;;;;;;5022283;28;20033;-83
2022/11/02 12:35:13;;;;;;;7.53;1.58;;;;;;;;;;5035926;28;20121;-82
2022/11/02 12:37:57;;;;;;;4.00;1.10;;;;;;;;;;5053325;28;20064;-81
2022/11/02 12:40:23;;;;;;;5.82;1.58;;;;;;;;;;5053389;28;20037;-82
2022/11/02 12:43:05;;;;;;;4.03;1.42;;;;;;;;;;5052389;28;20033;-82
2022/11/02 12:45:41;;;;;;;8.55;2.33;;;;;;;;;;5033263;28;20033;-83
2022/11/02 12:48:09;;;;;;;6.43;1.30;;;;;;;;;;5051798;28;20105;-80
2022/11/02 12:50:54;;;;;;;6.43;1.45;;;;;;;;;;5052886;28;20048;-82
2022/11/02 12:53:20;;;;;;;5.40;0.95;;;;;;;;;;5052571;28;20057;-82
2022/11/02 12:55:49;;;;;;;5.30;1.63;;;;;;;;;;5051835;28;20017;-82
2022/11/02 12:58:26;;;;;;;5.43;1.17;;;;;;;;;;5053454;28;20071;-81
2022/11/02 13:01:00;;;;;;;4.55;1.13;;;;;;;;;;5051872;28;20033;-82
2022/11/02 13:03:42;;;;;;;4.32;1.00;;;;;;;;;;5031682;28;20028;-83
2022/11/02 13:06:11;;;;;;;6.50;1.60;;;;;;;;;;5032056;28;20146;-83
2022/11/02 13:08:43;;;;;;;3.10;1.10;;;;;;;;;;5050702;28;20040;-82
2022/11/02 13:11:15;;;;;;;2.10;0.52;;;;;;;;;;5031148;28;20025;-83
2022/11/02 13:13:50;;;;;;;3.83;1.35;;;;;;;;;;5025510;28;20110;-83
2022/11/02 13:16:18;;;;;;;3.42;1.48;;;;;;;;;;5048396;28;20024;-82
2022/11/02 13:18:47;;;;;;;4.53;1.33;;;;;;;;;;5055840;28;20025;-82
2022/11/02 13:21:15;;;;;;;3.30;1.50;;;;;;;;;;5050843;28;20029;-82
2022/11/02 13:23:48;;;;;;;3.80;0.82;;;;;;;;;;5053194;28;20075;-81
2022/11/02 13:26:20;;;;;;;3.83;0.80;;;;;;;;;;5052885;28;20025;-81
2022/11/02 13:28:54;;;;;;;2.60;0.60;;;;;;;;;;5052776;28;20018;-82
2022/11/02 13:31:25;;;;;;;0.95;0.65;;;;;;;;;;5053389;28;20029;-82
2022/11/02 13:33:53;;;;;;;4.80;1.15;;;;;;;;;;5053528;28;20025;-82
2022/11/02 13:36:19;;;;;;;3.05;0.80;;;;;;;;;;5053930;28;20033;-82
2022/11/02 13:38:51;;;;;;;2.88;0.60;;;;;;;;;;5024783;28;20038;-81
2022/11/02 13:41:36;;;;;;;5.82;1.02;;;;;;;;;;5034429;28;20014;-81
2022/11/02 13:44:11;;;;;;;5.63;1.10;;;;;;;;;;5034063;28;20033;-82
2022/11/02 13:46:43;;;;;;;2.63;0.82;;;;;;;;;;5034373;28;20074;-82
2022/11/02 13:49:09;;;;;;;;;;;;;;;;;;5017494;28;20021;-82
2022/11/02 13:51:57;;;;;;;4.30;1.00;;;;;;;;;;5017617;28;19916;-82
2022/11/02 13:54:23;;;;;;;4.78;0.93;;;;;;;;;;5034615;28;20026;-82
2022/11/02 13:56:54;;;;;;;1.85;0.60;;;;;;;;;;5024633;28;20093;-82
2022/11/02 13:59:22;;;;;;;1.65;0.52;;;;;;;;;;5054906;28;20032;-82
2022/11/02 14:01:50;;;;;;;3.65;0.77;;;;;;;;;;5054803;28;20009;-82
2022/11/02 14:04:16;;;;;;;4.80;0.88;;;;;;;;;;5054330;28;20453;-82
2022/11/02 14:06:48;;;;;;;5.20;0.85;;;;;;;;;;5033593;28;20026;-82
2022/11/02 14:09:27;;;;;;;2.60;0.90;;;;;;;;;;5054754;28;20085;-82
2022/11/02 14:12:09;;;;;;;2.25;0.55;;;;;;;;;;5037140;28;20021;-81
2022/11/02 14:15:08;;;;;;;;;;;;;;;;;;;;;
2022/11/02 14:20:33;;;;;;;1.67;0.90;;;;;;;;;;5046537;28;20052;-81
2022/11/02 14:23:08;;;;;;;1.38;0.85;;;;;;;;;;5050929;28;20024;-82
2022/11/02 14:25:58;;;;;;;3.00;0.82;;;;;;;;;;5053847;28;20029;-83
2022/11/02 14:28:28;;;;;;;2.97;1.00;;;;;;;;;;5035066;28;20076;-82
2022/11/02 14:30:54;;;;;;;5.05;0.90;;;;;;;;;;5047372;28;20029;-83
2022/11/02 14:33:36;;;;;;;5.38;0.90;;;;;;;;;;5053513;28;20090;-81
2022/11/02 14:36:05;;;;;;;4.45;1.10;;;;;;;;;;5030240;28;20033;-81
2022/11/02 14:38:43;;;;;;;2.33;0.70;;;;;;;;;;5035788;28;20067;-82
2022/11/02 14:41:19;;;;;;;1.83;0.65;;;;;;;;;;5033880;28;20060;-84
2022/11/02 14:43:54;;;;;;;3.80;1.10;;;;;;;;;;5053198;28;20120;-83
2022/11/02 14:46:27;;;;;;;5.43;1.55;;;;;;;;;;5034877;28;20041;-81
2022/11/02 14:48:57;;;;;;;3.05;1.00;;;;;;;;;;5052604;28;20029;-82
2022/11/02 14:51:26;;;;;;;5.05;1.27;;;;;;;;;;5053723;28;20038;-82
2022/11/02 14:54:05;;;;;;;4.97;1.30;;;;;;;;;;5052884;28;20032;-83
2022/11/02 14:57:15;;;;;;;5.18;2.10;;;;;;;;;;5036246;28;20040;-84
2022/11/02 14:59:54;;;;;;;2.53;1.35;;;;;;;;;;4956763;29;20035;-84
2022/11/02 15:02:27;;;;;;;6.03;0.88;;;;;;;;;;4955557;29;20073;-83
2022/11/02 15:05:00;;;;;;;2.97;0.63;;;;;;;;;;4971273;29;20047;-81
2022/11/02 15:07:39;;;;;;;2.28;0.85;;;;;;;;;;4955169;29;20059;-84
2022/11/02 15:10:21;;;;;;;8.38;1.00;;;;;;;;;;4966372;28;20130;-82
2022/11/02 15:13:07;;;;;;;5.38;1.17;;;;;;;;;;5034771;28;20021;-83
2022/11/02 15:18:43;;;;;;;7.95;1.70;;;;;;;;;;4989780;28;20034;-82
2022/11/02 15:21:09;;;;;;;3.33;1.10;;;;;;;;;;5044519;28;20091;-82
2022/11/02 15:23:41;;;;;;;2.50;0.95;;;;;;;;;;5055042;28;20043;-80
2022/11/02 15:26:13;;;;;;;1.50;0.73;;;;;;;;;;5054605;28;20108;-82
2022/11/02 15:28:39;;;;;;;2.42;0.90;;;;;;;;;;5036961;28;20021;-83
2022/11/02 15:31:12;;;;;;;2.03;0.80;;;;;;;;;;5036952;28;20036;-82
2022/11/02 15:33:43;;;;;;;4.03;1.30;;;;;;;;;;5053740;28;20254;-82
2022/11/02 15:36:15;;;;;;;1.77;1.00;;;;;;;;;;5035651;28;20030;-82
2022/11/02 15:38:46;;;;;;;2.67;1.00;;;;;;;;;;5053374;28;20048;-82
2022/11/02 15:41:28;;;;;;;3.80;1.55;;;;;;;;;;5033405;28;20065;-83
2022/11/02 15:43:54;;;;;;;3.60;0.90;;;;;;;;;;5052844;28;20033;-82
2022/11/02 15:46:52;;;;;;;1.95;0.98;;;;;;;;;;5052641;28;20152;-83
2022/11/02 15:49:18;;;;;;;1.95;0.82;;;;;;;;;;5030547;28;20052;-81
2022/11/02 15:52:11;;;;;;;1.73;0.90;;;;;;;;;;5034192;28;20092;-83
2022/11/02 15:54:52;;;;;;;2.33;1.23;;;;;;;;;;5021089;28;20034;-83
2022/11/02 15:57:37;;;;;;;2.50;1.33;;;;;;;;;;5050642;28;20056;-81
2022/11/02 16:00:09;;;;;;;5.03;1.63;;;;;;;;;;5023481;28;20020;-82
2022/11/02 16:02:53;;;;;;;6.27;1.37;;;;;;;;;;5032923;28;20036;-84
2022/11/02 16:05:23;;;;;;;5.60;1.30;;;;;;;;;;5045648;28;20037;-83
2022/11/02 16:07:50;;;;;;;5.78;1.17;;;;;;;;;;5040563;28;20091;-83
2022/11/02 16:10:22;;;;;;;5.95;1.00;;;;;;;;;;5046597;28;20036;-83
2022/11/02 16:12:55;;;;;;;2.83;0.90;;;;;;;;;;5043830;28;20036;-83
2022/11/02 16:15:22;;;;;;;2.72;1.13;;;;;;;;;;5026110;28;20065;-83
2022/11/02 16:17:51;;;;;;;4.18;0.90;;;;;;;;;;5023248;28;20052;-83
2022/11/02 16:20:30;;;;;;;1.83;0.73;;;;;;;;;;5023298;28;20040;-84
2022/11/02 16:22:57;;;;;;;3.05;0.90;;;;;;;;;;5025962;28;20075;-83
2022/11/02 16:25:26;;;;;;;3.38;1.10;;;;;;;;;;5041442;28;20037;-83
2022/11/02 16:27:52;;;;;;;0.85;0.65;;;;;;;;;;5040595;28;20029;-82
2022/11/02 16:30:22;;;;;;;1.83;0.88;;;;;;;;;;5041355;28;20026;-84
2022/11/02 16:32:51;;;;;;;1.95;1.08;;;;;;;;;;5023085;28;20036;-82
2022/11/02 16:35:18;;;;;;;1.10;0.80;;;;;;;;;;5042005;28;20041;-82
2022/11/02 16:37:44;;;;;;;3.03;0.85;;;;;;;;;;5040777;28;20060;-83
2022/11/02 16:40:18;;;;;;;3.72;1.27;;;;;;;;;;5028680;28;20033;-83
2022/11/02 16:42:47;;;;;;;6.63;1.60;;;;;;;;;;5042253;28;20030;-84
2022/11/02 16:45:29;;;;;;;5.15;1.42;;;;;;;;;;5025569;28;20033;-81
2022/11/02 16:47:55;;;;;;;3.00;1.13;;;;;;;;;;5044476;28;20079;-82
2022/11/02 16:50:22;;;;;;;5.13;1.50;;;;;;;;;;5043364;28;20026;-83
2022/11/02 16:52:53;;;;;;;4.82;1.30;;;;;;;;;;5044797;28;20021;-83
2022/11/02 16:55:50;;;;;;;2.38;1.25;;;;;;;;;;5043481;28;20548;-82
2022/11/02 16:58:20;;;;;;;4.97;1.50;;;;;;;;;;5027746;28;20037;-82
2022/11/02 17:01:00;;;;;;;3.10;1.30;;;;;;;;;;5050772;28;20079;-83
2022/11/02 17:03:29;;;;;;;2.85;1.10;;;;;;;;;;5026068;28;20116;-84
2022/11/02 17:05:56;;;;;;;3.70;1.48;;;;;;;;;;5046730;28;20029;-84
2022/11/02 17:08:27;;;;;;;4.68;1.48;;;;;;;;;;5052380;28;20033;-83
2022/11/02 17:10:55;;;;;;;2.85;1.40;;;;;;;;;;5037753;28;20072;-81
2022/11/02 17:13:21;;;;;;;1.65;0.98;;;;;;;;;;5059536;28;20021;-83
2022/11/02 17:15:52;;;;;;;4.35;1.20;;;;;;;;;;5039254;28;20351;-82
2022/11/02 17:18:21;;;;;;;3.47;1.60;;;;;;;;;;5026466;28;20085;-82
2022/11/02 17:20:47;;;;;;;3.38;1.40;;;;;;;;;;5054999;28;20034;-85
2022/11/02 17:23:33;;;;;;;2.47;1.35;;;;;;;;;;5043960;28;20025;-85
2022/11/02 17:26:18;;;;;;;3.00;1.48;;;;;;;;;;5047754;28;20036;-83
2022/11/02 17:28:45;;;;;;;3.00;1.50;;;;;;;;;;5048669;28;20040;-83
2022/11/02 17:31:22;;;;;;;3.10;1.33;;;;;;;;;;5048057;28;20108;-83
2022/11/02 17:33:49;;;;;;;3.85;1.55;;;;;;;;;;5030473;28;20021;-83
2022/11/02 17:36:15;;;;;;;3.40;1.50;;;;;;;;;;5044855;28;20029;-84
2022/11/02 17:38:41;;;;;;;3.95;2.05;;;;;;;;;;5021460;28;20048;-85
2022/11/02 17:44:01;;;;;;;3.72;1.35;;;;;;;;;;5042537;28;20075;-83
2022/11/02 17:46:27;;;;;;;3.72;1.38;;;;;;;;;;5024572;28;20482;-84
2022/11/02 17:48:53;;;;;;;2.22;1.30;;;;;;;;;;5045218;28;20079;-84
2022/11/02 17:51:20;;;;;;;3.40;1.65;;;;;;;;;;5048525;28;20089;-85
2022/11/02 17:53:46;;;;;;;4.05;1.95;;;;;;;;;;5033161;28;20056;-84
2022/11/02 17:56:12;;;;;;;3.75;1.65;;;;;;;;;;5034181;28;20005;-84
2022/11/02 17:58:38;;;;;;;3.67;1.80;;;;;;;;;;5052852;28;20051;-84
2022/11/02 18:01:05;;;;;;;4.53;1.73;;;;;;;;;;5033975;28;20056;-84
2022/11/02 18:03:31;;;;;;;6.50;1.98;;;;;;;;;;5033909;28;20014;-84
2022/11/02 18:05:57;;;;;;;2.28;1.48;;;;;;;;;;5032408;28;20543;-83
2022/11/02 18:08:23;;;;;;;5.20;1.85;;;;;;;;;;5032562;28;20037;-85
2022/11/02 18:10:50;;;;;;;5.20;1.65;;;;;;;;;;5028776;28;20056;-84
2022/11/02 18:13:21;;;;;;;5.53;1.58;;;;;;;;;;5041806;28;20112;-85